createdAt,value
2022-12-18T00:02:04.812Z,102319.76
2022-12-18T00:04:22.631Z,102324.92
2022-12-18T00:06:36.305Z,102329.64
2022-12-18T00:08:49.143Z,102328.19
2022-12-18T00:11:08.926Z,102334.73
2022-12-18T00:13:20.818Z,102335.89
2022-12-18T00:15:35.475Z,102331.42
2022-12-18T00:17:47.569Z,102335.35
2022-12-18T00:19:59.258Z,102340.48
2022-12-18T00:22:11.146Z,102337.35
2022-12-18T00:24:23.141Z,102341.02
2022-12-18T00:26:37.187Z,102348.55
2022-12-18T00:28:49.587Z,102347.39
2022-12-18T00:31:02.808Z,102347.36
2022-12-18T00:33:14.909Z,102346.91
2022-12-18T00:35:26.701Z,102350.95
2022-12-18T00:37:38.794Z,102350.27
2022-12-18T00:39:52.939Z,102352.66
2022-12-18T00:42:24.293Z,102352.83
2022-12-18T00:44:37.828Z,102354.11
2022-12-18T00:46:50.739Z,102363.35
2022-12-18T00:49:03.861Z,102368.10
2022-12-18T00:51:16.057Z,102372.98
2022-12-18T00:53:27.845Z,102379.10
2022-12-18T00:55:42.707Z,102379.98
2022-12-18T00:57:54.498Z,102380.54
2022-12-18T01:00:08.434Z,102379.77
2022-12-18T01:02:20.704Z,102380.70
2022-12-18T01:04:33.710Z,102382.57
2022-12-18T01:06:45.753Z,102384.45
2022-12-18T01:08:57.645Z,102396.88
2022-12-18T01:11:14.249Z,102402.12
2022-12-18T01:13:26.756Z,102403.66
2022-12-18T01:15:38.752Z,102405.20
2022-12-18T01:17:53.611Z,102407.52
2022-12-18T01:20:06.733Z,102408.41
2022-12-18T01:22:18.425Z,102409.10
2022-12-18T01:24:30.824Z,102409.23
2022-12-18T01:26:42.865Z,102410.35
2022-12-18T01:28:56.247Z,102412.75
2022-12-18T01:31:20.443Z,102413.01
2022-12-18T01:33:32.525Z,102412.58
2022-12-18T01:35:45.136Z,102407.90
2022-12-18T01:37:57.546Z,102411.52
2022-12-18T01:40:09.954Z,102415.27
2022-12-18T01:42:22.348Z,102417.14
2022-12-18T01:44:56.872Z,102416.72
2022-12-18T01:47:08.762Z,102421.30
2022-12-18T01:49:20.654Z,102419.31
2022-12-18T01:51:32.546Z,102425.92
2022-12-18T01:53:46.282Z,102423.29
2022-12-18T01:55:59.916Z,102426.00
2022-12-18T01:58:12.423Z,102429.06
2022-12-18T02:00:25.029Z,102428.09
2022-12-18T02:02:37.197Z,102434.88
2022-12-18T02:04:49.691Z,102437.05
2022-12-18T02:07:27.435Z,102439.06
2022-12-18T02:10:15.372Z,102449.55
2022-12-18T02:12:46.412Z,102451.95
2022-12-18T02:15:07.724Z,102455.75
2022-12-18T02:17:33.340Z,102457.52
2022-12-18T02:19:54.304Z,102459.79
2022-12-18T02:22:38.700Z,102458.59
2022-12-18T02:25:01.243Z,102459.95
2022-12-18T02:27:14.405Z,102463.67
2022-12-18T02:29:37.108Z,102461.45
2022-12-18T02:32:00.469Z,102465.03
2022-12-18T02:34:14.723Z,102464.48
2022-12-18T02:36:29.974Z,102465.11
2022-12-18T02:38:45.670Z,102463.78
2022-12-18T02:40:59.550Z,102466.17
2022-12-18T02:43:15.289Z,102464.48
2022-12-18T02:45:27.342Z,102466.52
2022-12-18T02:47:44.913Z,102465.04
2022-12-18T02:49:57.725Z,102466.86
2022-12-18T02:52:25.594Z,102468.27
2022-12-18T02:54:48.783Z,102471.82
2022-12-18T02:57:16.207Z,102472.63
2022-12-18T02:59:50.524Z,102474.01
2022-12-18T03:02:15.360Z,102472.00
2022-12-18T03:04:50.742Z,102471.20
2022-12-18T03:07:09.000Z,102476.55
2022-12-18T03:09:28.986Z,102477.80
2022-12-18T03:12:03.718Z,102483.41
2022-12-18T03:14:21.125Z,102483.47
2022-12-18T03:16:36.041Z,102486.08
2022-12-18T03:18:55.060Z,102489.18
2022-12-18T03:21:07.771Z,102494.45
2022-12-18T03:23:37.417Z,102495.20
2022-12-18T03:25:50.805Z,102497.05
2022-12-18T03:28:07.103Z,102501.48
2022-12-18T03:30:19.662Z,102503.67
2022-12-18T03:32:37.235Z,102501.88
2022-12-18T03:34:53.009Z,102501.98
2022-12-18T03:37:07.267Z,102500.45
2022-12-18T03:39:21.002Z,102499.38
2022-12-18T03:42:00.544Z,102503.86
2022-12-18T03:44:31.481Z,102505.77
2022-12-18T03:46:56.073Z,102505.73
2022-12-18T03:49:24.042Z,102507.72
2022-12-18T03:51:44.860Z,102514.56
2022-12-18T03:54:03.688Z,102518.92
2022-12-18T03:56:18.969Z,102518.77
2022-12-18T03:58:34.548Z,102519.69
2022-12-18T04:01:02.322Z,102521.56
2022-12-18T04:03:15.894Z,102516.93
2022-12-18T04:05:34.937Z,102517.34
2022-12-18T04:07:49.659Z,102515.83
2022-12-18T04:10:04.369Z,102515.59
2022-12-18T04:12:16.518Z,102520.73
2022-12-18T04:14:29.537Z,102523.17
2022-12-18T04:16:41.641Z,102521.25
2022-12-18T04:18:55.677Z,102523.66
2022-12-18T04:21:09.415Z,102524.95
2022-12-18T04:23:22.329Z,102525.41
2022-12-18T04:25:35.142Z,102530.11
2022-12-18T04:27:56.355Z,102535.83
2022-12-18T04:30:09.276Z,102543.64
2022-12-18T04:32:21.469Z,102547.13
2022-12-18T04:34:33.978Z,102546.92
2022-12-18T04:36:45.662Z,102547.60
2022-12-18T04:38:58.785Z,102548.88
2022-12-18T04:41:11.086Z,102555.00
2022-12-18T04:43:25.888Z,102555.78
2022-12-18T04:45:37.842Z,102552.73
2022-12-18T04:47:49.733Z,102556.90
2022-12-18T04:50:01.728Z,102554.89
2022-12-18T04:52:13.518Z,102555.82
2022-12-18T04:54:25.102Z,102563.58
2022-12-18T04:56:37.097Z,102564.27
2022-12-18T04:58:49.060Z,102564.56
2022-12-18T05:01:01.189Z,102569.40
2022-12-18T05:03:13.128Z,102566.73
2022-12-18T05:05:25.179Z,102574.44
2022-12-18T05:07:37.685Z,102578.55
2022-12-18T05:09:49.374Z,102574.23
2022-12-18T05:12:01.572Z,102574.54
2022-12-18T05:14:13.670Z,102578.85
2022-12-18T05:16:25.537Z,102579.95
2022-12-18T05:18:37.765Z,102583.33
2022-12-18T05:20:51.117Z,102585.52
2022-12-18T05:23:02.875Z,102590.08
2022-12-18T05:25:14.669Z,102592.14
2022-12-18T05:27:26.456Z,102592.92
2022-12-18T05:29:38.962Z,102597.45
2022-12-18T05:31:51.109Z,102604.55
2022-12-18T05:34:03.574Z,102603.94
2022-12-18T05:36:15.870Z,102607.52
2022-12-18T05:38:30.045Z,102609.04
2022-12-18T05:40:44.610Z,102612.30
2022-12-18T05:42:56.359Z,102613.02
2022-12-18T05:45:09.070Z,102614.02
2022-12-18T05:47:21.372Z,102617.90
2022-12-18T05:49:32.956Z,102619.53
2022-12-18T05:51:44.848Z,102620.33
2022-12-18T05:53:56.617Z,102619.79
2022-12-18T05:56:11.440Z,102620.81
2022-12-18T05:58:23.123Z,102621.64
2022-12-18T06:00:37.180Z,102625.63
2022-12-18T06:02:49.080Z,102635.98
2022-12-18T06:05:01.430Z,102638.99
2022-12-18T06:07:13.214Z,102646.10
2022-12-18T06:09:24.801Z,102647.60
2022-12-18T06:11:37.920Z,102653.31
2022-12-18T06:13:58.287Z,102662.74
2022-12-18T06:16:11.697Z,102663.44
2022-12-18T06:18:23.636Z,102659.87
2022-12-18T06:20:37.678Z,102667.29
2022-12-18T06:22:49.268Z,102669.27
2022-12-18T06:25:02.074Z,102676.72
2022-12-18T06:27:14.683Z,102676.54
2022-12-18T06:29:26.272Z,102675.79
2022-12-18T06:31:38.643Z,102676.94
2022-12-18T06:33:50.363Z,102684.25
2022-12-18T06:36:13.618Z,102684.25
2022-12-18T06:38:25.616Z,102691.77
2022-12-18T06:40:39.678Z,102698.13
2022-12-18T06:42:51.550Z,102694.53
2022-12-18T06:45:03.793Z,102696.71
2022-12-18T06:47:15.640Z,102696.59
2022-12-18T06:49:30.471Z,102698.27
2022-12-18T06:51:43.008Z,102692.59
2022-12-18T06:53:54.911Z,102694.23
2022-12-18T06:56:10.643Z,102689.79
2022-12-18T06:58:22.626Z,102686.48
2022-12-18T07:00:34.207Z,102692.35
2022-12-18T07:02:46.127Z,102697.70
2022-12-18T07:04:58.079Z,102702.13
2022-12-18T07:07:10.145Z,102703.19
2022-12-18T07:09:21.939Z,102707.70
2022-12-18T07:11:34.752Z,102705.79
2022-12-18T07:13:47.054Z,102707.16
2022-12-18T07:16:10.901Z,102708.17
2022-12-18T07:18:27.323Z,102719.72
2022-12-18T07:20:39.112Z,102729.23
2022-12-18T07:22:56.043Z,102732.35
2022-12-18T07:25:08.633Z,102733.70
2022-12-18T07:27:20.422Z,102732.65
2022-12-18T07:29:32.008Z,102732.48
2022-12-18T07:31:44.060Z,102736.53
2022-12-18T07:33:56.406Z,102738.54
2022-12-18T07:36:10.576Z,102734.15
2022-12-18T07:38:23.263Z,102733.83
2022-12-18T07:40:35.084Z,102735.86
2022-12-18T07:42:46.947Z,102740.30
2022-12-18T07:45:03.052Z,102743.02
2022-12-18T07:47:15.031Z,102747.58
2022-12-18T07:49:26.822Z,102755.35
2022-12-18T07:51:38.506Z,102755.55
2022-12-18T07:53:52.454Z,102763.95
2022-12-18T07:58:40.297Z,102768.73
2022-12-18T08:00:53.382Z,102771.20
2022-12-18T08:03:05.468Z,102775.98
2022-12-18T08:05:18.532Z,102777.21
2022-12-18T08:07:30.528Z,102787.27
2022-12-18T08:09:43.241Z,102787.12
2022-12-18T08:11:55.337Z,102790.98
2022-12-18T08:14:07.024Z,102792.73
2022-12-18T08:16:19.399Z,102800.40
2022-12-18T08:18:36.953Z,102802.89
2022-12-18T08:20:49.050Z,102799.98
2022-12-18T08:23:00.840Z,102798.36
2022-12-18T08:25:12.631Z,102804.94
2022-12-18T08:27:31.462Z,102809.74
2022-12-18T08:29:43.480Z,102807.37
2022-12-18T08:31:55.495Z,102810.79
2022-12-18T08:34:07.367Z,102809.12
2022-12-18T08:36:20.282Z,102808.58
2022-12-18T08:38:33.711Z,102810.77
2022-12-18T08:40:45.398Z,102809.48
2022-12-18T08:43:15.927Z,102806.54
2022-12-18T08:45:28.538Z,102808.23
2022-12-18T08:47:40.227Z,102811.16
2022-12-18T08:49:51.914Z,102813.14
2022-12-18T08:52:04.119Z,102806.89
2022-12-18T08:54:16.209Z,102794.29
2022-12-18T08:56:28.102Z,102788.25
2022-12-18T08:58:40.035Z,102786.30
2022-12-18T09:00:51.753Z,102783.27
2022-12-18T09:03:04.085Z,102781.67
2022-12-18T09:05:16.393Z,102779.65
2022-12-18T09:07:28.076Z,102772.96
2022-12-18T09:09:39.942Z,102768.42
2022-12-18T09:11:51.656Z,102765.48
2022-12-18T09:14:03.752Z,102767.73
2022-12-18T09:16:17.118Z,102762.44
2022-12-18T09:18:29.276Z,102753.50
2022-12-18T09:20:41.577Z,102758.71
2022-12-18T09:22:53.472Z,102759.88
2022-12-18T09:25:08.538Z,102763.77
2022-12-18T09:27:20.432Z,102761.31
2022-12-18T09:29:33.244Z,102761.11
2022-12-18T09:31:45.054Z,102769.48
2022-12-18T09:33:57.851Z,102777.04
2022-12-18T09:36:12.401Z,102783.58
2022-12-18T09:38:24.498Z,102780.28
2022-12-18T09:40:42.948Z,102780.56
2022-12-18T09:43:00.461Z,102778.88
2022-12-18T09:45:16.333Z,102779.73
2022-12-18T09:47:39.502Z,102779.61
2022-12-18T09:49:59.185Z,102775.30
2022-12-18T09:52:17.429Z,102772.03
2022-12-18T09:54:34.752Z,102767.41
2022-12-18T09:56:46.433Z,102763.36
2022-12-18T09:59:03.035Z,102764.10
2022-12-18T10:01:28.982Z,102768.23
2022-12-18T10:03:48.514Z,102772.86
2022-12-18T10:06:24.896Z,102775.95
2022-12-18T10:08:55.739Z,102777.94
2022-12-18T10:11:29.333Z,102781.48
2022-12-18T10:13:59.248Z,102784.09
2022-12-18T10:16:44.627Z,102771.94
2022-12-18T10:19:19.046Z,102765.19
2022-12-18T10:22:01.454Z,102764.59
2022-12-18T10:24:31.266Z,102763.08
2022-12-18T10:26:45.221Z,102769.13
2022-12-18T10:29:03.691Z,102772.27
2022-12-18T10:31:20.239Z,102782.05
2022-12-18T10:33:34.095Z,102784.10
2022-12-18T10:35:48.135Z,102795.50
2022-12-18T10:38:21.737Z,102793.98
2022-12-18T10:40:48.685Z,102789.15
2022-12-18T10:43:13.475Z,102787.19
2022-12-18T10:45:25.061Z,102782.17
2022-12-18T10:47:37.979Z,102783.56
2022-12-18T10:49:53.975Z,102786.39
2022-12-18T10:52:17.227Z,102788.21
2022-12-18T10:54:36.247Z,102786.76
2022-12-18T10:56:48.384Z,102784.42
2022-12-18T10:59:05.130Z,102784.56
2022-12-18T11:01:22.554Z,102783.14
2022-12-18T11:03:40.119Z,102783.48
2022-12-18T11:06:03.922Z,102784.02
2022-12-18T11:08:24.440Z,102784.10
2022-12-18T11:10:41.872Z,102779.41
2022-12-18T11:12:53.931Z,102773.81
2022-12-18T11:15:06.705Z,102772.64
2022-12-18T11:17:27.049Z,102769.49
2022-12-18T11:19:42.097Z,102764.45
2022-12-18T11:21:53.821Z,102762.95
2022-12-18T11:24:10.073Z,102761.58
2022-12-18T11:26:22.919Z,102768.47
2022-12-18T11:28:43.319Z,102768.33
2022-12-18T11:31:35.289Z,102769.91
2022-12-18T11:34:28.750Z,102763.62
2022-12-18T11:36:47.536Z,102757.99
2022-12-18T11:39:07.136Z,102754.89
2022-12-18T11:41:48.999Z,102752.45
2022-12-18T11:44:03.757Z,102752.98
2022-12-18T11:46:26.340Z,102756.77
2022-12-18T11:48:44.849Z,102757.27
2022-12-18T11:50:59.814Z,102756.88
2022-12-18T11:53:13.203Z,102757.65
2022-12-18T11:55:41.110Z,102757.20
2022-12-18T11:58:07.851Z,102767.77
2022-12-18T12:00:31.897Z,102763.95
2022-12-18T12:03:05.100Z,102767.24
2022-12-18T12:05:34.834Z,102768.96
2022-12-18T12:08:19.798Z,102769.63
2022-12-18T12:10:54.017Z,102768.36
2022-12-18T12:13:19.933Z,102769.23
2022-12-18T12:15:43.090Z,102778.89
2022-12-18T12:18:18.278Z,102780.34
2022-12-18T12:20:59.204Z,102781.20
2022-12-18T12:23:48.596Z,102794.27
2022-12-18T12:26:07.845Z,102800.35
2022-12-18T12:28:39.218Z,102802.35
2022-12-18T12:31:21.626Z,102800.70
2022-12-18T12:33:45.672Z,102800.84
2022-12-18T12:36:04.426Z,102799.78
2022-12-18T12:38:25.469Z,102797.45
2022-12-18T12:41:00.485Z,102793.18
2022-12-18T12:43:35.053Z,102791.66
2022-12-18T12:46:01.435Z,102787.83
2022-12-18T12:48:37.152Z,102788.04
2022-12-18T12:50:51.281Z,102790.89
2022-12-18T12:53:09.132Z,102793.45
2022-12-18T12:55:25.379Z,102795.23
2022-12-18T12:57:54.028Z,102793.50
2022-12-18T13:00:18.124Z,102794.29
2022-12-18T13:02:43.416Z,102796.05
2022-12-18T13:05:21.684Z,102793.45
2022-12-18T13:07:41.154Z,102792.90
2022-12-18T13:10:26.805Z,102792.60
2022-12-18T13:13:01.127Z,102783.68
2022-12-18T13:15:23.136Z,102776.68
2022-12-18T13:17:35.951Z,102778.85
2022-12-18T13:20:08.299Z,102776.29
2022-12-18T13:22:29.354Z,102783.08
2022-12-18T13:24:42.244Z,102781.23
2022-12-18T13:26:55.679Z,102778.26
2022-12-18T13:29:07.963Z,102780.11
2022-12-18T13:31:42.285Z,102778.57
2022-12-18T13:34:27.892Z,102781.17
2022-12-18T13:36:42.025Z,102785.43
2022-12-18T13:39:19.768Z,102787.11
2022-12-18T13:41:36.531Z,102783.31
2022-12-18T13:43:53.699Z,102781.92
2022-12-18T13:46:22.415Z,102784.69
2022-12-18T13:48:39.370Z,102785.30
2022-12-18T13:51:08.024Z,102790.36
2022-12-18T13:53:32.309Z,102800.98
2022-12-18T13:55:46.592Z,102803.52
2022-12-18T13:58:06.971Z,102805.20
2022-12-18T14:00:20.076Z,102806.79
2022-12-18T14:02:34.275Z,102801.69
2022-12-18T14:04:48.326Z,102800.16
2022-12-18T14:07:07.161Z,102798.60
2022-12-18T14:09:28.248Z,102799.30
2022-12-18T14:11:47.030Z,102800.74
2022-12-18T14:14:02.983Z,102792.84
2022-12-18T14:16:18.120Z,102792.52
2022-12-18T14:18:53.510Z,102798.63
2022-12-18T14:21:08.041Z,102802.61
2022-12-18T14:23:41.724Z,102804.67
2022-12-18T14:25:54.662Z,102808.92
2022-12-18T14:28:14.728Z,102814.25
2022-12-18T14:30:33.829Z,102819.75
2022-12-18T14:33:01.215Z,102820.23
2022-12-18T14:35:14.767Z,102825.90
2022-12-18T14:37:28.501Z,102823.55
2022-12-18T14:39:40.087Z,102828.05
2022-12-18T14:41:53.106Z,102830.44
2022-12-18T14:44:09.802Z,102833.61
2022-12-18T14:46:44.266Z,102833.36
2022-12-18T14:48:58.434Z,102836.27
2022-12-18T14:51:14.085Z,102836.64
2022-12-18T14:53:57.638Z,102840.79
2022-12-18T14:56:29.800Z,102848.84
2022-12-18T14:58:50.493Z,102853.13
2022-12-18T15:01:03.013Z,102856.14
2022-12-18T15:03:22.086Z,102859.74
2022-12-18T15:05:35.910Z,102850.41
2022-12-18T15:07:49.340Z,102846.35
2022-12-18T15:10:12.986Z,102839.97
2022-12-18T15:12:35.405Z,102832.70
2022-12-18T15:14:48.239Z,102828.16
2022-12-18T15:17:30.977Z,102827.87
2022-12-18T15:20:04.657Z,102830.08
2022-12-18T15:22:21.542Z,102828.92
2022-12-18T15:24:34.355Z,102823.08
2022-12-18T15:26:46.452Z,102827.06
2022-12-18T15:29:01.344Z,102820.55
2022-12-18T15:31:13.479Z,102819.71
2022-12-18T15:33:30.887Z,102818.02
2022-12-18T15:35:46.841Z,102813.20
2022-12-18T15:37:59.538Z,102806.65
2022-12-18T15:40:20.336Z,102806.80
2022-12-18T15:42:50.968Z,102810.36
2022-12-18T15:45:02.859Z,102812.91
2022-12-18T15:47:14.837Z,102814.09
2022-12-18T15:49:27.052Z,102805.78
2022-12-18T15:51:39.971Z,102800.64
2022-12-18T15:53:55.689Z,102788.66
2022-12-18T15:56:33.586Z,102787.22
2022-12-18T15:58:46.066Z,102783.89
2022-12-18T16:01:02.953Z,102784.64
2022-12-18T16:03:17.455Z,102776.71
2022-12-18T16:05:33.365Z,102773.39
2022-12-18T16:07:52.131Z,102773.55
2022-12-18T16:10:10.032Z,102773.52
2022-12-18T16:12:26.802Z,102776.71
2022-12-18T16:14:38.283Z,102780.98
2022-12-18T16:16:56.525Z,102781.52
2022-12-18T16:19:08.828Z,102776.89
2022-12-18T16:21:20.774Z,102769.76
2022-12-18T16:23:33.876Z,102770.17
2022-12-18T16:25:49.412Z,102763.98
2022-12-18T16:28:02.336Z,102765.52
2022-12-18T16:30:21.625Z,102771.31
2022-12-18T16:32:33.698Z,102779.11
2022-12-18T16:34:46.926Z,102786.92
2022-12-18T16:37:06.625Z,102794.17
2022-12-18T16:39:26.376Z,102801.58
2022-12-18T16:41:38.882Z,102799.48
2022-12-18T16:43:55.105Z,102801.41
2022-12-18T16:46:13.813Z,102805.59
2022-12-18T16:48:26.947Z,102807.19
2022-12-18T16:50:38.941Z,102810.77
2022-12-18T16:53:04.865Z,102819.32
2022-12-18T16:55:21.712Z,102817.39
2022-12-18T16:57:34.760Z,102821.02
2022-12-18T16:59:51.907Z,102819.02
2022-12-18T17:02:03.863Z,102810.30
2022-12-18T17:04:53.688Z,102814.77
2022-12-18T17:07:09.797Z,102808.67
2022-12-18T17:09:25.969Z,102805.41
2022-12-18T17:11:38.266Z,102810.46
2022-12-18T17:13:49.954Z,102803.64
2022-12-18T17:16:08.536Z,102799.97
2022-12-18T17:18:24.521Z,102802.13
2022-12-18T17:20:37.529Z,102800.86
2022-12-18T17:22:52.783Z,102798.85
2022-12-18T17:25:10.248Z,102799.46
2022-12-18T17:27:34.902Z,102804.27
2022-12-18T17:29:48.653Z,102802.59
2022-12-18T17:32:01.143Z,102808.71
2022-12-18T17:34:15.122Z,102807.91
2022-12-18T17:36:31.198Z,102814.09
2022-12-18T17:38:44.290Z,102817.98
2022-12-18T17:41:04.475Z,102821.30
2022-12-18T17:43:16.573Z,102814.48
2022-12-18T17:45:29.080Z,102811.16
2022-12-18T17:47:41.178Z,102800.56
2022-12-18T17:53:43.558Z,102806.70
2022-12-18T17:55:57.658Z,102806.44
2022-12-18T17:58:09.406Z,102805.02
2022-12-18T18:00:22.017Z,102810.98
2022-12-18T18:02:33.782Z,102808.48
2022-12-18T18:04:46.210Z,102806.84
2022-12-18T18:06:57.838Z,102805.30
2022-12-18T18:09:16.775Z,102804.44
2022-12-18T18:11:49.591Z,102806.00
2022-12-18T18:14:07.114Z,102809.16
2022-12-18T18:16:19.194Z,102804.11
2022-12-18T18:18:31.868Z,102805.38
2022-12-18T18:20:43.965Z,102801.92
2022-12-18T18:22:56.676Z,102794.92
2022-12-18T18:25:09.593Z,102795.48
2022-12-18T18:27:21.895Z,102785.55
2022-12-18T18:29:34.402Z,102778.26
2022-12-18T18:31:46.970Z,102768.89
2022-12-18T18:33:59.005Z,102753.98
2022-12-18T18:36:11.819Z,102757.41
2022-12-18T18:38:23.711Z,102753.15
2022-12-18T18:40:35.297Z,102756.23
2022-12-18T18:42:48.212Z,102755.25
2022-12-18T18:45:00.312Z,102757.50
2022-12-18T18:47:13.020Z,102756.08
2022-12-18T18:49:27.561Z,102758.58
2022-12-18T18:51:41.003Z,102762.58
2022-12-18T18:53:53.920Z,102768.34
2022-12-18T18:56:45.542Z,102771.61
2022-12-18T18:58:39.925Z,102779.35
2022-12-18T19:00:57.510Z,102779.58
2022-12-18T19:03:10.204Z,102785.25
2022-12-18T19:05:23.028Z,102788.75
2022-12-18T19:07:39.372Z,102787.98
2022-12-18T19:09:56.210Z,102787.45
2022-12-18T19:12:28.246Z,102781.84
2022-12-18T19:14:42.430Z,102781.01
2022-12-18T19:17:02.311Z,102775.65
2022-12-18T19:19:23.753Z,102782.98
2022-12-18T19:21:41.052Z,102784.27
2022-12-18T19:23:56.482Z,102779.52
2022-12-18T19:26:27.858Z,102777.20
2022-12-18T19:32:24.686Z,102775.36
2022-12-18T19:35:30.433Z,102769.17
2022-12-18T19:37:52.312Z,102762.63
2022-12-18T19:40:12.444Z,102763.47
2022-12-18T19:42:29.268Z,102762.58
2022-12-18T19:44:45.361Z,102759.73
2022-12-18T19:46:57.051Z,102764.14
2022-12-18T19:49:17.455Z,102765.55
2022-12-18T19:51:53.418Z,102769.41
2022-12-18T19:54:24.076Z,102766.95
2022-12-18T19:56:46.725Z,102773.08
2022-12-18T19:59:07.019Z,102775.42
2022-12-18T20:01:32.329Z,102775.43
2022-12-18T20:04:04.697Z,102773.73
2022-12-18T20:06:33.845Z,102778.91
2022-12-18T20:08:50.853Z,102781.27
2022-12-18T20:11:03.463Z,102785.91
2022-12-18T20:13:16.685Z,102788.42
2022-12-18T20:15:29.546Z,102788.59
2022-12-18T20:17:41.597Z,102788.23
2022-12-18T20:19:53.385Z,102785.09
2022-12-18T20:22:06.712Z,102783.34
2022-12-18T20:24:18.707Z,102778.26
2022-12-18T20:26:32.896Z,102773.83
2022-12-18T20:28:53.761Z,102772.79
2022-12-18T20:31:14.897Z,102773.15
2022-12-18T20:33:37.140Z,102776.30
2022-12-18T20:36:01.413Z,102774.48
2022-12-18T20:38:24.779Z,102778.57
2022-12-18T20:40:44.827Z,102777.88
2022-12-18T20:42:56.616Z,102778.96
2022-12-18T20:45:08.713Z,102777.39
2022-12-18T20:47:48.972Z,102779.48
2022-12-18T20:50:01.478Z,102778.09
2022-12-18T20:52:25.487Z,102783.58
2022-12-18T20:54:37.654Z,102786.54
2022-12-18T20:56:50.587Z,102786.54
2022-12-18T20:59:03.484Z,102788.58
2022-12-18T21:01:19.025Z,102789.75
2022-12-18T21:03:39.340Z,102783.02
2022-12-18T21:06:03.037Z,102780.70
2022-12-18T21:08:16.288Z,102769.55
2022-12-18T21:10:47.106Z,102775.54
2022-12-18T21:13:03.155Z,102774.63
2022-12-18T21:15:24.032Z,102770.20
2022-12-18T21:17:44.273Z,102768.95
2022-12-18T21:20:01.140Z,102771.77
2022-12-18T21:22:14.897Z,102769.87
2022-12-18T21:24:29.062Z,102769.88
2022-12-18T21:26:52.004Z,102766.39
2022-12-18T21:29:08.620Z,102762.02
2022-12-18T21:31:25.627Z,102754.27
2022-12-18T21:33:39.915Z,102748.00
2022-12-18T21:35:59.306Z,102737.64
2022-12-18T21:38:11.869Z,102729.58
2022-12-18T21:40:27.549Z,102732.11
2022-12-18T21:43:01.881Z,102733.27
2022-12-18T21:45:14.868Z,102736.48
2022-12-18T21:47:27.691Z,102732.98
2022-12-18T21:49:42.756Z,102728.05
2022-12-18T21:52:02.450Z,102727.01
2022-12-18T21:54:32.423Z,102722.65
2022-12-18T21:57:56.260Z,102719.52
2022-12-18T22:00:11.218Z,102711.98
2022-12-18T22:02:32.068Z,102713.19
2022-12-18T22:04:45.405Z,102711.10
2022-12-18T22:07:29.828Z,102704.41
2022-12-18T22:09:46.187Z,102702.31
2022-12-18T22:12:02.554Z,102696.34
2022-12-18T22:14:15.379Z,102690.16
2022-12-18T22:16:30.127Z,102687.36
2022-12-18T22:18:42.126Z,102683.48
2022-12-18T22:21:06.610Z,102677.82
2022-12-18T22:23:18.503Z,102676.77
2022-12-18T22:25:30.598Z,102680.13
2022-12-18T22:27:42.090Z,102676.95
2022-12-18T22:30:20.745Z,102673.60
2022-12-18T22:32:36.503Z,102668.15
2022-12-18T22:34:49.175Z,102662.68
2022-12-18T22:37:02.348Z,102657.39
2022-12-18T22:39:21.345Z,102654.71
2022-12-18T22:41:36.166Z,102646.25
2022-12-18T22:43:48.673Z,102642.20
2022-12-18T22:46:02.756Z,102632.32
2022-12-18T22:48:15.192Z,102630.91
2022-12-18T22:50:28.625Z,102632.98
2022-12-18T22:52:41.129Z,102633.70
2022-12-18T22:54:54.349Z,102633.37
2022-12-18T22:57:06.517Z,102633.87
2022-12-18T22:59:21.649Z,102627.86
2022-12-18T23:01:33.801Z,102626.45
2022-12-18T23:03:48.848Z,102620.96
2022-12-18T23:06:08.853Z,102609.83
2022-12-18T23:08:20.756Z,102599.42
2022-12-18T23:10:33.162Z,102601.39
2022-12-18T23:12:44.951Z,102597.84
2022-12-18T23:14:56.743Z,102600.47
2022-12-18T23:17:08.736Z,102592.38
2022-12-18T23:19:21.244Z,102592.55
2022-12-18T23:21:36.002Z,102588.48
2022-12-18T23:23:49.123Z,102585.86
2022-12-18T23:26:07.814Z,102576.55
2022-12-18T23:28:19.357Z,102579.01
2022-12-18T23:30:32.582Z,102581.56
2022-12-18T23:32:44.475Z,102579.97
2022-12-18T23:34:56.265Z,102576.29
2022-12-18T23:37:08.055Z,102578.94
2022-12-18T23:39:29.092Z,102570.80
2022-12-18T23:41:41.977Z,102575.38
2022-12-18T23:43:54.586Z,102570.45
2022-12-18T23:46:19.847Z,102569.77
2022-12-18T23:48:31.583Z,102564.64
2022-12-18T23:50:43.779Z,102557.38
2022-12-18T23:52:57.209Z,102559.88
2022-12-18T23:55:14.834Z,102564.85
2022-12-18T23:57:26.931Z,102565.73
2022-12-18T23:59:39.854Z,102571.05
